Time;durP1;ratioP1;P1;durP2;ratioP2;P2;SDS_P1;SDS_P2;PMS_P1;PMS_P2;Temp;Humidity;BMP_temperature;BMP_pressure;BME280_temperature;BME280_humidity;BME280_pressure;Samples;Min_cycle;Max_cycle;Signal;HPM_P1;HPM_P2
2021/11/06 00:00:33;;;;;;;14.07;6.35;;;8.00;99.90;;;;;;5064465;28;25067;-76
2021/11/06 00:02:59;;;;;;;15.25;6.95;;;8.10;99.90;;;;;;5069790;28;25064;-73
2021/11/06 00:05:24;;;;;;;13.45;6.25;;;8.00;99.90;;;;;;5068936;28;25145;-76
2021/11/06 00:07:50;;;;;;;17.42;6.47;;;8.00;99.90;;;;;;5067440;28;25183;-76
2021/11/06 00:10:16;;;;;;;13.95;7.18;;;8.00;99.90;;;;;;5072431;28;25067;-73
2021/11/06 00:12:42;;;;;;;12.35;6.57;;;8.00;99.90;;;;;;5073160;28;25160;-74
2021/11/06 00:15:10;;;;;;;14.15;6.95;;;8.00;99.90;;;;;;5047105;28;25060;-72
2021/11/06 00:17:37;;;;;;;16.30;7.07;;;8.00;99.90;;;;;;5071758;28;25056;-75
2021/11/06 00:20:05;;;;;;;14.23;7.47;;;8.10;99.90;;;;;;5071234;28;25073;-75
2021/11/06 00:22:32;;;;;;;10.85;7.10;;;8.10;99.90;;;;;;5062620;28;25111;-75
2021/11/06 00:24:57;;;;;;;10.88;7.55;;;8.00;99.90;;;;;;5058155;28;25074;-78
2021/11/06 00:27:23;;;;;;;12.90;7.38;;;8.00;99.90;;;;;;5076951;28;25084;-76
2021/11/06 00:29:49;;;;;;;15.43;7.25;;;8.00;99.90;;;;;;5066974;28;25075;-78
2021/11/06 00:32:14;;;;;;;12.85;6.80;;;8.00;99.90;;;;;;5072092;28;25065;-75
2021/11/06 00:34:40;;;;;;;11.18;7.55;;;8.00;99.90;;;;;;5079982;28;25077;-75
2021/11/06 00:37:06;;;;;;;13.65;7.28;;;8.00;99.90;;;;;;5052397;28;25059;-73
2021/11/06 00:39:33;;;;;;;9.90;6.80;;;7.90;99.90;;;;;;5076872;28;25064;-75
2021/11/06 00:41:59;;;;;;;13.60;7.25;;;7.90;99.90;;;;;;5068585;28;25052;-75
2021/11/06 00:44:24;;;;;;;13.20;7.63;;;7.90;99.90;;;;;;5071814;28;25062;-75
2021/11/06 00:46:50;;;;;;;13.15;7.18;;;7.90;99.90;;;;;;5071674;28;25068;-75
2021/11/06 00:49:16;;;;;;;16.00;7.45;;;7.80;99.90;;;;;;5070515;28;25155;-74
2021/11/06 00:51:41;;;;;;;12.32;7.47;;;7.80;99.90;;;;;;5060901;28;25053;-75
2021/11/06 00:54:07;;;;;;;12.05;7.40;;;7.70;99.90;;;;;;5065721;28;25070;-75
2021/11/06 00:56:33;;;;;;;18.38;7.20;;;7.70;99.90;;;;;;5072501;28;25064;-76
2021/11/06 00:58:58;;;;;;;14.00;6.65;;;7.70;99.90;;;;;;5071915;28;25073;-76
2021/11/06 01:01:24;;;;;;;10.65;6.72;;;7.70;99.90;;;;;;5068413;28;25076;-78
2021/11/06 01:03:50;;;;;;;17.15;7.65;;;7.70;99.90;;;;;;5074892;28;25096;-76
2021/11/06 01:06:17;;;;;;;12.60;7.45;;;7.70;99.90;;;;;;5077078;28;25106;-78
2021/11/06 01:08:45;;;;;;;11.35;7.00;;;7.70;99.90;;;;;;5062373;28;25175;-78
2021/11/06 01:11:11;;;;;;;14.25;7.22;;;7.70;99.90;;;;;;5061718;28;25057;-75
2021/11/06 01:13:38;;;;;;;12.15;7.47;;;7.70;99.90;;;;;;5070404;28;25072;-74
2021/11/06 01:16:04;;;;;;;13.13;7.07;;;7.70;99.90;;;;;;5070181;28;25079;-75
2021/11/06 01:18:29;;;;;;;14.63;7.15;;;7.70;99.90;;;;;;5071092;28;25081;-77
2021/11/06 01:20:55;;;;;;;11.73;6.43;;;7.70;99.90;;;;;;5070695;28;25076;-73
2021/11/06 01:23:27;;;;;;;14.73;7.55;;;7.70;99.90;;;;;;5077405;28;24770;-75
2021/11/06 01:25:54;;;;;;;15.50;6.90;;;7.70;99.90;;;;;;5075504;28;25150;-72
2021/11/06 01:28:20;;;;;;;12.93;7.32;;;7.80;99.90;;;;;;5072686;28;25144;-75
2021/11/06 01:30:45;;;;;;;11.38;7.60;;;7.70;99.90;;;;;;5053438;28;25070;-72
2021/11/06 01:33:11;;;;;;;11.02;7.32;;;7.70;99.90;;;;;;5051230;28;25050;-71
2021/11/06 01:35:37;;;;;;;14.63;7.82;;;7.60;99.90;;;;;;5063755;28;25062;-77
2021/11/06 01:38:02;;;;;;;13.20;7.47;;;7.60;99.90;;;;;;5063872;28;25054;-74
2021/11/06 01:40:28;;;;;;;9.95;7.00;;;7.60;99.90;;;;;;5061811;28;25074;-75
2021/11/06 01:42:54;;;;;;;12.35;8.20;;;7.50;99.90;;;;;;5066455;28;25080;-74
2021/11/06 01:45:21;;;;;;;12.90;7.85;;;7.50;99.90;;;;;;5067335;28;25053;-76
2021/11/06 01:47:47;;;;;;;13.15;7.32;;;7.50;99.90;;;;;;5070893;28;25163;-78
2021/11/06 01:50:16;;;;;;;13.50;7.40;;;7.50;99.90;;;;;;5065657;28;25094;-77
2021/11/06 01:52:42;;;;;;;15.70;8.30;;;7.50;99.90;;;;;;5068335;28;25100;-75
2021/11/06 01:55:08;;;;;;;11.40;7.70;;;7.60;99.90;;;;;;5062700;28;25088;-75
2021/11/06 01:57:34;;;;;;;18.27;8.20;;;7.60;99.90;;;;;;5062053;28;25098;-73
2021/11/06 02:00:00;;;;;;;15.73;7.78;;;7.50;99.90;;;;;;5066970;28;25096;-73
2021/11/06 02:02:27;;;;;;;13.10;7.82;;;7.50;99.90;;;;;;5070134;28;25060;-76
2021/11/06 02:04:52;;;;;;;17.85;8.40;;;7.50;99.90;;;;;;5066906;28;25092;-73
2021/11/06 02:07:19;;;;;;;12.18;7.50;;;7.50;99.90;;;;;;5059627;28;25075;-74
2021/11/06 02:09:44;;;;;;;18.20;8.68;;;7.40;99.90;;;;;;5056213;28;25095;-77
2021/11/06 02:12:10;;;;;;;11.93;7.72;;;7.50;99.90;;;;;;5058767;28;25160;-74
2021/11/06 02:14:36;;;;;;;15.05;8.43;;;7.50;99.90;;;;;;5064869;28;25101;-73
2021/11/06 02:17:03;;;;;;;11.70;7.20;;;7.40;99.90;;;;;;5060243;28;25101;-75
2021/11/06 02:19:31;;;;;;;19.08;8.30;;;7.50;99.90;;;;;;5049646;28;25164;-73
2021/11/06 02:21:59;;;;;;;12.77;7.93;;;7.50;99.90;;;;;;5069110;28;25093;-76
2021/11/06 02:24:26;;;;;;;20.65;10.23;;;7.50;99.90;;;;;;5069299;28;25061;-74
2021/11/06 02:26:53;;;;;;;17.58;7.50;;;7.50;99.90;;;;;;5057059;28;25097;-74
2021/11/06 02:29:18;;;;;;;13.48;7.85;;;7.50;99.90;;;;;;5058875;28;25074;-73
2021/11/06 02:31:46;;;;;;;15.40;8.73;;;7.50;99.90;;;;;;5064345;28;25155;-76
2021/11/06 02:34:12;;;;;;;11.23;7.85;;;7.50;99.90;;;;;;5042403;28;25182;-73
2021/11/06 02:36:38;;;;;;;17.05;8.32;;;7.50;99.90;;;;;;5068709;28;25092;-73
2021/11/06 02:39:05;;;;;;;12.63;8.20;;;7.50;99.90;;;;;;5067238;28;25069;-73
2021/11/06 02:41:31;;;;;;;14.68;8.23;;;7.50;99.90;;;;;;5065537;28;25046;-73
2021/11/06 02:44:04;;;;;;;14.13;7.53;;;7.50;99.90;;;;;;5059695;28;25057;-75
2021/11/06 02:46:30;;;;;;;15.32;7.82;;;7.60;99.90;;;;;;5063565;28;25066;-74
2021/11/06 02:48:55;;;;;;;10.60;8.32;;;7.60;99.90;;;;;;5062448;28;25061;-76
2021/11/06 02:51:21;;;;;;;13.70;8.57;;;7.60;99.90;;;;;;5066372;28;25070;-76
2021/11/06 02:53:47;;;;;;;20.90;8.70;;;7.60;99.90;;;;;;5066679;28;25052;-74
2021/11/06 02:56:18;;;;;;;17.20;8.85;;;7.60;99.90;;;;;;5065085;28;25075;-74
2021/11/06 02:58:44;;;;;;;13.73;8.15;;;7.60;99.90;;;;;;5048785;28;25166;-74
2021/11/06 03:01:10;;;;;;;15.93;8.50;;;7.60;99.90;;;;;;5067810;28;25162;-74
2021/11/06 03:03:36;;;;;;;16.38;9.18;;;7.60;99.90;;;;;;5067025;28;25091;-76
2021/11/06 03:06:01;;;;;;;18.13;9.20;;;7.60;99.90;;;;;;5068853;28;25088;-76
2021/11/06 03:08:27;;;;;;;15.68;9.52;;;7.70;99.90;;;;;;5070675;28;25074;-73
2021/11/06 03:10:53;;;;;;;14.68;9.45;;;7.60;99.90;;;;;;5076509;28;25071;-73
2021/11/06 03:13:21;;;;;;;12.65;9.48;;;7.60;99.90;;;;;;5069710;28;25062;-73
2021/11/06 03:15:46;;;;;;;18.35;8.98;;;7.60;99.90;;;;;;5072758;28;25051;-75
2021/11/06 03:18:16;;;;;;;19.58;9.50;;;7.60;99.90;;;;;;5079335;28;25056;-74
2021/11/06 03:20:45;;;;;;;18.23;10.63;;;7.60;99.90;;;;;;5086334;28;25089;-75
2021/11/06 03:23:14;;;;;;;15.45;9.85;;;7.60;99.90;;;;;;5088927;28;25083;-73
2021/11/06 03:25:41;;;;;;;16.20;10.07;;;7.60;99.90;;;;;;5091788;28;25056;-77
2021/11/06 03:28:08;;;;;;;18.45;11.32;;;7.60;99.90;;;;;;5094764;28;25063;-76
2021/11/06 03:30:35;;;;;;;15.95;10.30;;;7.70;99.90;;;;;;5099474;28;25064;-75
2021/11/06 03:33:02;;;;;;;18.65;11.18;;;7.70;99.90;;;;;;5099437;28;25074;-73
2021/11/06 03:35:28;;;;;;;19.98;11.65;;;7.80;99.90;;;;;;5080800;28;25070;-77
2021/11/06 03:37:54;;;;;;;17.05;11.02;;;7.80;99.90;;;;;;5094370;28;25058;-77
2021/11/06 03:40:20;;;;;;;19.63;11.82;;;7.90;99.90;;;;;;5085167;28;25117;-79
2021/11/06 03:43:12;;;;;;;19.25;12.15;;;7.90;99.90;;;;;;5093897;28;25070;-77
2021/11/06 03:45:37;;;;;;;21.50;12.07;;;8.00;99.90;;;;;;5089896;28;25161;-77
2021/11/06 03:48:04;;;;;;;21.48;11.77;;;8.00;99.90;;;;;;5081882;28;25064;-74
2021/11/06 03:50:31;;;;;;;17.55;11.65;;;8.00;99.90;;;;;;5084681;28;25060;-75
2021/11/06 03:52:56;;;;;;;21.35;12.07;;;8.00;99.90;;;;;;5093376;28;25104;-77
2021/11/06 03:55:24;;;;;;;17.80;11.52;;;8.00;99.90;;;;;;5089970;28;25057;-74
2021/11/06 03:57:55;;;;;;;22.60;12.85;;;8.00;99.90;;;;;;5091936;28;25066;-76
2021/11/06 04:00:22;;;;;;;23.52;14.02;;;8.00;99.90;;;;;;5092085;28;25092;-76
2021/11/06 04:02:49;;;;;;;22.95;14.10;;;8.00;99.90;;;;;;5084085;28;25073;-75
2021/11/06 04:05:16;;;;;;;22.33;14.13;;;7.90;99.90;;;;;;5081409;28;25079;-73
2021/11/06 04:07:43;;;;;;;25.67;15.27;;;7.90;99.90;;;;;;5079197;28;25084;-77
2021/11/06 04:10:11;;;;;;;24.77;14.75;;;7.90;99.90;;;;;;5071804;28;25050;-77
2021/11/06 04:12:37;;;;;;;28.23;15.10;;;8.00;99.90;;;;;;5076266;28;25074;-75
2021/11/06 04:15:06;;;;;;;23.77;14.60;;;7.90;99.90;;;;;;5078453;28;25079;-75
2021/11/06 04:17:33;;;;;;;30.20;16.17;;;8.00;99.90;;;;;;5075404;28;25100;-75
2021/11/06 04:19:59;;;;;;;30.05;16.85;;;7.90;99.90;;;;;;5071627;28;25138;-73
2021/11/06 04:22:24;;;;;;;24.98;16.35;;;8.00;99.90;;;;;;5070058;28;25145;-74
2021/11/06 04:24:50;;;;;;;27.92;16.25;;;8.00;99.90;;;;;;5071497;28;25172;-74
2021/11/06 04:27:16;;;;;;;34.60;17.52;;;8.00;99.90;;;;;;5064336;28;25140;-75
2021/11/06 04:29:41;;;;;;;29.45;16.40;;;8.00;99.90;;;;;;5063964;28;25052;-76
2021/11/06 04:32:07;;;;;;;25.77;16.05;;;8.00;99.90;;;;;;5066036;28;25063;-74
2021/11/06 04:34:33;;;;;;;24.70;16.50;;;8.00;99.90;;;;;;5073446;28;25070;-74
2021/11/06 04:36:59;;;;;;;21.20;15.20;;;8.10;99.90;;;;;;5068579;28;25060;-75
2021/11/06 04:39:24;;;;;;;30.30;18.02;;;8.10;99.90;;;;;;5064005;28;25073;-74
2021/11/06 04:41:50;;;;;;;31.23;16.40;;;8.20;99.90;;;;;;5067230;28;25065;-76
2021/11/06 04:44:16;;;;;;;25.23;16.90;;;8.10;99.90;;;;;;5084101;28;25057;-75
2021/11/06 04:46:44;;;;;;;22.45;16.10;;;8.30;99.90;;;;;;5072745;28;25066;-78
2021/11/06 04:49:09;;;;;;;29.00;17.60;;;8.30;99.90;;;;;;5072433;28;25055;-76
2021/11/06 04:51:35;;;;;;;27.40;17.98;;;8.30;99.90;;;;;;5069830;28;25053;-75
2021/11/06 04:54:01;;;;;;;29.23;17.60;;;8.30;99.90;;;;;;5073357;28;25073;-75
2021/11/06 04:56:27;;;;;;;23.27;15.30;;;8.30;99.90;;;;;;5071685;28;25092;-73
2021/11/06 04:58:53;;;;;;;23.98;15.98;;;8.30;99.90;;;;;;5072519;28;25090;-74
2021/11/06 05:01:18;;;;;;;31.13;16.17;;;8.40;99.90;;;;;;5069419;28;25094;-75
2021/11/06 05:03:44;;;;;;;30.48;17.33;;;8.30;99.90;;;;;;5044522;28;25090;-75
2021/11/06 05:06:11;;;;;;;27.45;16.05;;;8.40;99.90;;;;;;5047226;28;25151;-75
2021/11/06 05:08:37;;;;;;;25.38;15.82;;;8.40;99.90;;;;;;5066987;28;25086;-73
2021/11/06 05:11:03;;;;;;;24.23;15.70;;;8.40;99.90;;;;;;5067604;28;25095;-73
2021/11/06 05:13:28;;;;;;;27.05;16.25;;;8.40;99.90;;;;;;5048085;28;25071;-75
2021/11/06 05:15:57;;;;;;;23.88;16.15;;;8.40;99.90;;;;;;5065128;28;25157;-74
2021/11/06 05:18:24;;;;;;;29.77;15.45;;;8.40;99.90;;;;;;5046986;28;25059;-74
2021/11/06 05:20:50;;;;;;;27.25;15.65;;;8.40;99.90;;;;;;5062449;28;25076;-74
2021/11/06 05:23:16;;;;;;;28.30;14.18;;;8.40;99.90;;;;;;5045907;28;25344;-75
2021/11/06 05:25:44;;;;;;;28.67;17.55;;;8.40;99.90;;;;;;5067597;28;25108;-74
2021/11/06 05:28:10;;;;;;;27.90;17.52;;;8.50;99.90;;;;;;5045905;28;25079;-74
2021/11/06 05:30:36;;;;;;;23.25;15.05;;;8.50;99.90;;;;;;5059317;28;25136;-75
2021/11/06 05:33:02;;;;;;;29.20;17.63;;;8.50;99.90;;;;;;5069273;28;25052;-74
2021/11/06 05:35:27;;;;;;;31.20;16.52;;;8.50;99.90;;;;;;5070090;28;25109;-75
2021/11/06 05:37:53;;;;;;;38.17;18.73;;;8.50;99.90;;;;;;5069876;28;25098;-79
2021/11/06 05:40:19;;;;;;;36.17;18.95;;;8.50;99.90;;;;;;5046373;28;25081;-75
2021/11/06 05:42:44;;;;;;;35.25;18.77;;;8.50;99.90;;;;;;5067918;28;25104;-74
2021/11/06 05:45:10;;;;;;;35.47;19.40;;;8.40;99.90;;;;;;5063054;28;25134;-76
2021/11/06 05:47:37;;;;;;;32.88;18.73;;;8.40;99.90;;;;;;5072021;28;25077;-76
2021/11/06 05:50:09;;;;;;;36.38;18.77;;;8.40;99.90;;;;;;5071957;28;25057;-74
2021/11/06 05:52:35;;;;;;;43.90;20.77;;;8.40;99.90;;;;;;5051773;28;25062;-74
2021/11/06 05:55:01;;;;;;;38.60;21.02;;;8.40;99.90;;;;;;5072563;28;25073;-73
2021/11/06 05:57:28;;;;;;;36.72;18.70;;;8.30;99.90;;;;;;5071376;28;25117;-74
2021/11/06 05:59:55;;;;;;;41.03;20.15;;;8.30;99.90;;;;;;5070861;28;25073;-73
2021/11/06 06:02:21;;;;;;;43.90;21.15;;;8.30;99.90;;;;;;5076200;28;25094;-73
2021/11/06 06:04:46;;;;;;;42.13;20.48;;;8.40;99.90;;;;;;5080351;28;25073;-76
2021/11/06 06:07:12;;;;;;;43.22;21.90;;;8.40;99.90;;;;;;5070775;28;25080;-74
2021/11/06 06:09:37;;;;;;;38.83;20.52;;;8.50;99.90;;;;;;5068922;28;25052;-74
2021/11/06 06:12:04;;;;;;;48.85;22.60;;;8.50;99.90;;;;;;5054403;28;25111;-76
2021/11/06 06:14:29;;;;;;;46.00;22.38;;;8.50;99.90;;;;;;5071920;28;25167;-74
2021/11/06 06:16:55;;;;;;;51.38;24.02;;;8.40;99.90;;;;;;5065491;28;25059;-75
2021/11/06 06:19:20;;;;;;;37.30;22.17;;;8.40;99.90;;;;;;5077595;28;25128;-73
2021/11/06 06:21:47;;;;;;;46.95;22.83;;;8.40;99.90;;;;;;5070435;28;25107;-77
2021/11/06 06:24:12;;;;;;;42.70;22.35;;;8.30;99.90;;;;;;5064215;28;25069;-75
2021/11/06 06:26:40;;;;;;;46.65;22.48;;;8.30;99.90;;;;;;5063482;28;25070;-75
2021/11/06 06:29:06;;;;;;;47.47;23.85;;;8.30;99.90;;;;;;5048738;28;25085;-75
2021/11/06 06:31:33;;;;;;;48.30;22.52;;;8.30;99.90;;;;;;5082434;28;25076;-77
2021/11/06 06:33:58;;;;;;;44.80;22.40;;;8.30;99.90;;;;;;5075951;28;25171;-74
2021/11/06 06:36:24;;;;;;;45.95;22.55;;;8.30;99.90;;;;;;5056388;28;25079;-75
2021/11/06 06:38:49;;;;;;;50.00;23.15;;;8.40;99.90;;;;;;5079273;28;25053;-74
2021/11/06 06:41:15;;;;;;;49.63;24.38;;;8.50;99.90;;;;;;5068394;28;25163;-74
2021/11/06 06:43:41;;;;;;;45.10;23.90;;;8.50;99.90;;;;;;5068129;28;25103;-76
2021/11/06 06:46:07;;;;;;;51.88;23.38;;;8.40;99.90;;;;;;5068748;28;25140;-76
2021/11/06 06:48:33;;;;;;;50.55;22.40;;;8.40;99.90;;;;;;5062008;28;25068;-78
2021/11/06 06:50:58;;;;;;;54.30;23.67;;;8.30;99.90;;;;;;5052992;28;25085;-74
2021/11/06 06:53:24;;;;;;;48.47;21.10;;;8.40;99.90;;;;;;5062690;28;25092;-78
2021/11/06 06:55:50;;;;;;;50.05;23.25;;;8.30;99.90;;;;;;5059788;28;25056;-74
2021/11/06 06:58:16;;;;;;;41.50;19.80;;;8.40;99.90;;;;;;5064804;28;25058;-78
2021/11/06 07:00:42;;;;;;;44.10;20.10;;;8.40;99.90;;;;;;5060459;28;25069;-77
2021/11/06 07:03:08;;;;;;;47.00;20.95;;;8.40;99.90;;;;;;5064810;28;25140;-75
2021/11/06 07:05:33;;;;;;;45.35;20.52;;;8.40;99.90;;;;;;5048803;28;25065;-77
2021/11/06 07:07:59;;;;;;;36.55;18.85;;;8.50;99.90;;;;;;5044259;28;25065;-78
2021/11/06 07:10:25;;;;;;;38.75;20.40;;;8.50;99.90;;;;;;5063219;28;25069;-75
2021/11/06 07:12:52;;;;;;;45.05;21.65;;;8.50;99.90;;;;;;5054322;28;25060;-76
2021/11/06 07:15:18;;;;;;;39.22;18.38;;;8.50;99.90;;;;;;5067175;28;25057;-75
2021/11/06 07:17:44;;;;;;;41.53;19.45;;;8.50;99.90;;;;;;5040751;28;25058;-76
2021/11/06 07:20:10;;;;;;;45.55;21.25;;;8.60;99.90;;;;;;5061000;28;25090;-76
2021/11/06 07:22:36;;;;;;;34.55;17.58;;;8.60;99.90;;;;;;5067852;28;25064;-75
2021/11/06 07:25:04;;;;;;;46.03;19.83;;;8.60;99.90;;;;;;5069752;28;25083;-75
2021/11/06 07:27:31;;;;;;;47.17;20.55;;;8.60;99.90;;;;;;5073942;28;25095;-77
2021/11/06 07:29:58;;;;;;;41.50;18.95;;;8.60;99.90;;;;;;5065992;28;25155;-76
2021/11/06 07:32:23;;;;;;;41.58;19.27;;;8.60;99.90;;;;;;5061912;28;25081;-76
2021/11/06 07:34:49;;;;;;;41.05;19.33;;;8.60;99.90;;;;;;5051011;28;25108;-76
2021/11/06 07:37:16;;;;;;;43.63;19.52;;;8.60;99.90;;;;;;5069464;28;25066;-75
2021/11/06 07:39:42;;;;;;;44.60;19.02;;;8.60;99.90;;;;;;5074212;28;25082;-77
2021/11/06 07:42:08;;;;;;;42.13;17.92;;;8.60;99.90;;;;;;5067572;28;25153;-75
2021/11/06 07:44:34;;;;;;;39.08;18.58;;;8.60;99.90;;;;;;5063859;28;25105;-75
2021/11/06 07:47:00;;;;;;;41.03;19.15;;;8.60;99.90;;;;;;5050161;28;25146;-77
2021/11/06 07:49:26;;;;;;;39.47;17.80;;;8.60;99.90;;;;;;5068908;28;25132;-77
2021/11/06 07:51:52;;;;;;;42.97;18.70;;;8.60;99.90;;;;;;5069700;28;25077;-75
2021/11/06 07:54:18;;;;;;;37.58;17.10;;;8.60;99.90;;;;;;5069682;28;25160;-75
2021/11/06 07:56:44;;;;;;;32.22;16.13;;;8.70;99.90;;;;;;5067684;28;25097;-75
2021/11/06 07:59:10;;;;;;;35.40;16.30;;;8.80;99.90;;;;;;5065967;28;25080;-75
2021/11/06 08:01:36;;;;;;;31.95;15.15;;;8.90;99.90;;;;;;5072232;28;25071;-77
2021/11/06 08:04:02;;;;;;;28.83;14.77;;;9.00;99.90;;;;;;5066899;28;25134;-75
2021/11/06 08:06:28;;;;;;;32.88;15.10;;;9.10;99.90;;;;;;5069836;28;25132;-77
2021/11/06 08:08:54;;;;;;;27.92;13.80;;;9.20;99.90;;;;;;5068346;28;25065;-77
2021/11/06 08:11:20;;;;;;;31.00;13.70;;;9.20;99.90;;;;;;5071959;28;25065;-77
2021/11/06 08:13:46;;;;;;;29.75;13.05;;;9.30;99.90;;;;;;5069505;28;25081;-77
2021/11/06 08:16:11;;;;;;;23.85;13.02;;;9.30;99.90;;;;;;5069152;28;25066;-77
2021/11/06 08:18:38;;;;;;;27.70;13.05;;;9.30;99.90;;;;;;5072400;28;25059;-78
2021/11/06 08:21:03;;;;;;;24.42;12.30;;;9.30;99.90;;;;;;5072923;28;25083;-78
2021/11/06 08:23:29;;;;;;;20.88;11.45;;;9.30;99.90;;;;;;5071634;28;25075;-77
2021/11/06 08:25:55;;;;;;;23.90;11.95;;;9.30;99.90;;;;;;5084677;28;25063;-78
2021/11/06 08:28:21;;;;;;;26.08;13.05;;;9.30;99.90;;;;;;5080598;28;25097;-77
2021/11/06 08:30:47;;;;;;;20.55;10.32;;;9.30;99.90;;;;;;5084695;28;25050;-78
2021/11/06 08:33:13;;;;;;;25.63;11.50;;;9.30;99.90;;;;;;5074682;28;25079;-78
2021/11/06 08:35:39;;;;;;;23.63;11.15;;;9.30;99.90;;;;;;5076605;28;25075;-76
2021/11/06 08:38:04;;;;;;;27.92;11.95;;;9.40;99.90;;;;;;5076164;28;25064;-75
2021/11/06 08:40:33;;;;;;;21.98;11.30;;;9.40;99.90;;;;;;5071982;28;25063;-76
2021/11/06 08:42:59;;;;;;;24.42;11.73;;;9.50;99.90;;;;;;5067478;28;25080;-74
2021/11/06 08:45:25;;;;;;;28.92;12.43;;;9.50;99.90;;;;;;5068868;28;25081;-75
2021/11/06 08:47:51;;;;;;;26.38;12.38;;;9.50;99.90;;;;;;5069012;28;25076;-74
2021/11/06 08:50:20;;;;;;;25.52;11.88;;;9.50;99.90;;;;;;5073712;28;25073;-76
2021/11/06 08:52:46;;;;;;;27.73;12.73;;;9.50;99.90;;;;;;5072566;28;25069;-74
2021/11/06 08:55:13;;;;;;;30.77;13.13;;;9.50;99.90;;;;;;5074148;28;25096;-78
2021/11/06 08:57:40;;;;;;;30.60;12.48;;;9.50;99.90;;;;;;5061532;28;25083;-76
2021/11/06 09:00:18;;;;;;;30.90;13.02;;;9.50;99.90;;;;;;5086930;28;25060;-77
2021/11/06 09:02:45;;;;;;;33.65;13.15;;;9.60;99.90;;;;;;5092105;28;25076;-77
2021/11/06 09:05:24;;;;;;;27.23;13.63;;;9.60;99.90;;;;;;5100709;28;25069;-80
2021/11/06 09:07:52;;;;;;;27.08;12.88;;;9.70;99.90;;;;;;5099392;28;25054;-76
2021/11/06 09:10:26;;;;;;;27.42;13.52;;;9.70;99.90;;;;;;5095476;28;25073;-78
2021/11/06 09:12:52;;;;;;;34.40;13.80;;;9.80;99.90;;;;;;5071460;28;25061;-77
2021/11/06 09:15:22;;;;;;;31.50;13.23;;;9.90;99.90;;;;;;5087542;28;25077;-76
2021/11/06 09:17:50;;;;;;;32.08;14.27;;;9.90;99.90;;;;;;5073359;28;25088;-78
2021/11/06 09:20:19;;;;;;;32.83;13.32;;;9.90;99.90;;;;;;5073121;28;25051;-76
2021/11/06 09:22:46;;;;;;;31.80;13.73;;;10.00;99.90;;;;;;5076339;28;25060;-77
2021/11/06 09:25:12;;;;;;;31.15;13.20;;;10.00;99.90;;;;;;5055978;28;25072;-76
2021/11/06 09:27:39;;;;;;;30.40;12.70;;;10.10;99.90;;;;;;5076569;28;25080;-76
2021/11/06 09:30:07;;;;;;;26.58;12.60;;;10.10;99.90;;;;;;5089352;28;25086;-77
2021/11/06 09:32:33;;;;;;;25.63;12.10;;;10.10;99.90;;;;;;5068125;28;25090;-77
2021/11/06 09:35:05;;;;;;;26.80;12.55;;;10.20;99.90;;;;;;5069397;28;25054;-77
2021/11/06 09:37:32;;;;;;;29.50;12.00;;;10.20;99.90;;;;;;5066528;28;25154;-77
2021/11/06 09:39:59;;;;;;;26.13;12.32;;;10.10;99.90;;;;;;5086085;28;25060;-78
2021/11/06 09:42:25;;;;;;;22.40;11.45;;;10.10;99.90;;;;;;5088656;28;25048;-77
2021/11/06 09:44:52;;;;;;;28.77;12.40;;;10.20;99.90;;;;;;5079660;28;25129;-80
2021/11/06 09:47:20;;;;;;;20.90;10.57;;;10.20;99.90;;;;;;5077985;28;25087;-80
2021/11/06 09:49:46;;;;;;;23.33;10.88;;;10.20;99.90;;;;;;5082574;28;25078;-73
2021/11/06 09:52:13;;;;;;;24.35;11.40;;;10.20;99.90;;;;;;5072317;28;25079;-78
2021/11/06 09:54:39;;;;;;;25.10;10.93;;;10.20;99.90;;;;;;5074101;28;25086;-77
2021/11/06 09:57:06;;;;;;;29.02;11.82;;;10.20;99.90;;;;;;5072990;28;25071;-76
2021/11/06 09:59:33;;;;;;;26.30;9.98;;;10.20;99.90;;;;;;5079090;28;25068;-75
2021/11/06 10:02:02;;;;;;;24.05;10.30;;;10.20;99.90;;;;;;5065304;28;25071;-76
2021/11/06 10:04:30;;;;;;;25.15;11.13;;;10.30;99.90;;;;;;5079451;28;25058;-76
2021/11/06 10:06:58;;;;;;;23.45;10.65;;;10.30;99.90;;;;;;5080663;28;25141;-75
2021/11/06 10:09:25;;;;;;;25.20;11.32;;;10.30;99.90;;;;;;5065525;28;25065;-74
2021/11/06 10:11:55;;;;;;;23.27;10.85;;;10.40;99.90;;;;;;5079286;28;25118;-77
2021/11/06 10:14:25;;;;;;;23.33;10.43;;;10.30;99.90;;;;;;5083497;28;25065;-76
2021/11/06 10:17:04;;;;;;;26.33;10.75;;;10.30;99.90;;;;;;5066933;28;25076;-75
2021/11/06 10:19:36;;;;;;;24.60;10.75;;;10.40;99.90;;;;;;5088154;28;25063;-75
2021/11/06 10:22:09;;;;;;;;;;;10.50;99.90;;;;;;5089661;28;25093;-78
2021/11/06 10:24:43;;;;;;;;;;;10.50;99.90;;;;;;5088098;28;25053;-78
2021/11/06 10:27:15;;;;;;;22.58;10.30;;;10.40;99.90;;;;;;5077067;28;24087;-77
2021/11/06 10:29:42;;;;;;;20.45;9.20;;;10.50;99.90;;;;;;5084234;28;25058;-76
2021/11/06 10:32:08;;;;;;;23.17;9.85;;;10.50;99.90;;;;;;5086025;28;25064;-75
2021/11/06 10:34:36;;;;;;;28.83;11.68;;;10.50;99.90;;;;;;5061269;28;25057;-74
2021/11/06 10:37:11;;;;;;;23.60;11.13;;;10.60;99.90;;;;;;5060877;28;25181;-76
2021/11/06 10:39:51;;;;;;;20.63;9.60;;;10.60;99.90;;;;;;5060228;28;25071;-75
2021/11/06 10:42:18;;;;;;;21.63;10.70;;;10.70;99.90;;;;;;5055615;28;25069;-77
2021/11/06 10:44:44;;;;;;;22.95;9.85;;;10.70;99.90;;;;;;5089897;28;25081;-76
2021/11/06 10:47:11;;;;;;;16.58;8.35;;;10.80;99.90;;;;;;5084810;28;25073;-75
2021/11/06 10:49:46;;;;;;;18.75;8.90;;;10.80;99.90;;;;;;5063521;28;25072;-77
2021/11/06 10:52:20;;;;;;;17.35;8.68;;;10.80;99.90;;;;;;5087515;28;25105;-75
2021/11/06 10:55:04;;;;;;;19.23;9.05;;;10.90;99.90;;;;;;5088999;28;25075;-77
2021/11/06 10:57:30;;;;;;;19.77;8.25;;;11.00;99.90;;;;;;5081916;28;25065;-74
2021/11/06 11:00:14;;;;;;;19.38;10.35;;;10.90;99.90;;;;;;5080382;28;25088;-76
2021/11/06 11:02:41;;;;;;;20.25;9.35;;;11.00;99.90;;;;;;5078963;28;25083;-74
2021/11/06 11:05:34;;;;;;;16.85;9.00;;;11.00;99.90;;;;;;5079506;28;25078;-74
2021/11/06 11:08:08;;;;;;;19.00;8.98;;;11.10;99.90;;;;;;5072353;28;25078;-74
2021/11/06 11:10:37;;;;;;;21.70;9.95;;;11.00;99.90;;;;;;5055608;28;25109;-76
2021/11/06 11:13:14;;;;;;;18.55;9.15;;;11.00;99.90;;;;;;5073411;28;25062;-77
2021/11/06 11:15:51;;;;;;;18.67;10.10;;;11.10;99.90;;;;;;5066921;28;25167;-75
2021/11/06 11:18:30;;;;;;;23.23;10.25;;;11.10;99.90;;;;;;5047943;28;25102;-77
2021/11/06 11:21:11;;;;;;;20.00;9.93;;;11.10;99.90;;;;;;5053272;28;25071;-76
2021/11/06 11:23:38;;;;;;;21.33;9.35;;;11.20;99.90;;;;;;5059293;28;25044;-72
2021/11/06 11:26:05;;;;;;;18.27;9.68;;;11.20;99.90;;;;;;5071767;28;25071;-76
2021/11/06 11:28:31;;;;;;;21.73;10.18;;;11.20;99.90;;;;;;5070103;28;25096;-74
2021/11/06 11:30:57;;;;;;;22.67;10.48;;;11.30;99.90;;;;;;5074098;28;25057;-77
2021/11/06 11:33:23;;;;;;;28.50;10.40;;;11.30;99.90;;;;;;5067084;28;25155;-74
2021/11/06 11:35:50;;;;;;;24.10;10.10;;;11.30;99.90;;;;;;5068678;28;25049;-73
2021/11/06 11:38:18;;;;;;;27.40;11.27;;;11.40;99.90;;;;;;5070653;28;25051;-76
2021/11/06 11:40:58;;;;;;;26.88;11.15;;;11.50;99.90;;;;;;5051077;28;25100;-73
2021/11/06 11:43:42;;;;;;;23.77;10.93;;;11.50;99.90;;;;;;5068323;28;25077;-74
2021/11/06 11:46:10;;;;;;;25.02;10.32;;;11.60;99.90;;;;;;5065409;28;25068;-74
2021/11/06 11:48:37;;;;;;;27.10;11.50;;;11.50;99.90;;;;;;5070285;28;25076;-72
2021/11/06 11:51:04;;;;;;;27.98;11.55;;;11.50;99.90;;;;;;5071353;28;25093;-75
2021/11/06 11:53:35;;;;;;;28.67;12.43;;;11.60;99.90;;;;;;5054616;28;25053;-77
2021/11/06 11:56:16;;;;;;;26.65;11.27;;;11.60;99.90;;;;;;5054637;28;25079;-73
2021/11/06 11:58:44;;;;;;;22.52;11.15;;;11.50;99.90;;;;;;5073409;28;25059;-75
2021/11/06 12:01:20;;;;;;;20.58;10.40;;;11.60;99.90;;;;;;5076849;28;25063;-74
2021/11/06 12:03:47;;;;;;;22.05;11.10;;;11.60;99.90;;;;;;5073459;28;25051;-77
2021/11/06 12:06:30;;;;;;;26.33;11.10;;;11.60;99.90;;;;;;5075201;28;25103;-74
2021/11/06 12:08:58;;;;;;;;;;;11.60;99.90;;;;;;5079092;28;25150;-76
2021/11/06 12:11:26;;;;;;;24.60;11.98;;;11.60;99.90;;;;;;5074134;28;25065;-75
2021/11/06 12:13:55;;;;;;;22.52;10.95;;;11.70;99.90;;;;;;5076568;28;25052;-77
2021/11/06 12:16:23;;;;;;;23.88;12.50;;;11.70;99.90;;;;;;5075022;28;25069;-74
2021/11/06 12:18:56;;;;;;;28.88;12.52;;;11.80;99.90;;;;;;5080159;28;25094;-73
2021/11/06 12:21:29;;;;;;;23.25;11.85;;;11.90;99.90;;;;;;5075388;28;25103;-75
2021/11/06 12:24:10;;;;;;;26.23;11.98;;;12.30;99.90;;;;;;5073099;28;25053;-73
2021/11/06 12:26:56;;;;;;;21.77;10.82;;;12.50;99.90;;;;;;5072653;28;25079;-74
2021/11/06 12:29:30;;;;;;;21.58;10.43;;;12.70;99.90;;;;;;5075212;28;25072;-76
2021/11/06 12:32:13;;;;;;;16.65;9.15;;;12.70;99.90;;;;;;5083620;28;25046;-76
2021/11/06 12:34:46;;;;;;;24.95;11.50;;;12.50;99.90;;;;;;5081086;28;25136;-77
2021/11/06 12:37:31;;;;;;;21.63;10.15;;;12.20;99.90;;;;;;5063025;28;25078;-75
2021/11/06 12:39:57;;;;;;;19.90;9.85;;;12.20;99.90;;;;;;5078937;28;25072;-74